Time;durP1;ratioP1;P1;durP2;ratioP2;P2;SDS_P1;SDS_P2;PMS_P1;PMS_P2;Temp;Humidity;BMP_temperature;BMP_pressure;BME280_temperature;BME280_humidity;BME280_pressure;Samples;Min_cycle;Max_cycle;Signal;HPM_P1;HPM_P2
2022/11/05 00:10:53;;;;;;;63.25;42.33;;;;;;;8.33;100.00;100052.53;5071319;28;20087;-74
2022/11/05 00:19:05;;;;;;;61.35;43.58;;;;;;;8.99;100.00;100173.09;5069996;28;20048;-74
2022/11/05 00:27:09;;;;;;;62.65;41.30;;;;;;;9.11;100.00;100208.00;5072279;28;20498;-73
2022/11/05 00:29:34;;;;;;;75.22;45.30;;;;;;;9.09;100.00;100201.03;5058551;28;20033;-73
2022/11/05 00:32:00;;;;;;;58.05;37.92;;;;;;;8.44;100.00;100087.47;5071931;28;20388;-73
2022/11/05 00:34:26;;;;;;;58.70;42.83;;;;;;;8.84;100.00;100175.66;5071526;28;20029;-73
2022/11/05 00:36:51;;;;;;;63.20;41.47;;;;;;;9.07;100.00;100210.63;5051724;28;20186;-73
2022/11/05 00:39:17;;;;;;;83.22;46.00;;;;;;;8.77;100.00;100176.50;5070490;28;20041;-74
2022/11/05 00:50:04;;;;;;;65.25;40.85;;;;;;;8.98;100.00;100210.59;5070586;28;20091;-76
2022/11/05 00:55:54;;;;;;;64.85;44.75;;;;;;;8.80;100.00;100203.56;5070461;28;20051;-75
2022/11/05 00:58:21;;;;;;;69.57;44.67;;;;;;;8.53;100.00;100156.38;5053043;28;20044;-75
2022/11/05 01:01:28;;;;;;;66.28;45.45;;;;;;;8.73;100.00;100187.81;5068696;28;20079;-75
2022/11/05 01:03:54;;;;;;;62.25;44.95;;;;;;;8.65;100.00;100187.81;5070672;28;20040;-75
2022/11/05 01:06:19;;;;;;;59.53;44.17;;;;;;;8.69;100.00;100189.56;5071825;28;20075;-75
2022/11/05 01:08:47;;;;;;;68.38;42.17;;;;;;;8.55;100.00;100159.88;5070062;28;20100;-75
2022/11/05 01:11:31;;;;;;;74.05;43.58;;;;;;;8.65;100.00;100198.28;5067789;28;20033;-75
2022/11/05 01:14:07;;;;;;;65.65;37.40;;;;;;;8.46;100.00;100134.56;5069948;28;20041;-75
2022/11/05 01:16:33;;;;;;;61.45;42.50;;;;;;;7.82;100.00;100048.88;5069131;28;20051;-75
2022/11/05 01:19:00;;;;;;;58.20;41.50;;;;;;;7.90;100.00;100038.44;5086632;28;20072;-76
2022/11/05 01:21:25;;;;;;;54.47;37.00;;;;;;;8.42;100.00;100143.25;5068331;28;20041;-75
2022/11/05 01:23:52;;;;;;;64.40;44.28;;;;;;;8.49;100.00;100157.22;5070198;28;20036;-75
2022/11/05 01:26:17;;;;;;;71.93;41.05;;;;;;;8.54;100.00;100169.44;5069806;28;20024;-75
2022/11/05 01:28:42;;;;;;;61.22;39.67;;;;;;;8.71;100.00;100172.16;5069519;28;20476;-73
2022/11/05 01:31:08;;;;;;;65.47;37.38;;;;;;;8.58;100.00;100165.97;5069126;28;20040;-73
2022/11/05 01:33:33;;;;;;;64.43;40.25;;;;;;;8.37;100.00;100122.28;5069218;28;20071;-75
2022/11/05 01:35:59;;;;;;;62.03;37.90;;;;;;;8.60;100.00;100172.09;5070137;28;20440;-76
2022/11/05 01:38:24;;;;;;;58.08;38.47;;;;;;;8.36;100.00;100158.91;5068319;28;20372;-75
2022/11/05 01:41:01;;;;;;;62.72;38.22;;;;;;;8.14;100.00;100131.75;5070040;28;20017;-74
2022/11/05 01:43:56;;;;;;;65.22;37.97;;;;;;;8.44;100.00;100173.75;5070360;28;20048;-74
2022/11/05 01:46:50;;;;;;;53.40;35.08;;;;;;;8.27;100.00;100148.41;5069103;28;20124;-74
2022/11/05 01:49:32;;;;;;;45.60;35.78;;;;;;;8.33;100.00;100135.34;5067884;28;20116;-74
2022/11/05 01:52:02;;;;;;;50.45;35.17;;;;;;;7.94;100.00;100048.06;5069026;28;20037;-74
2022/11/05 01:54:31;;;;;;;55.05;36.13;;;;;;;7.18;100.00;99929.28;5069232;28;20051;-74
2022/11/05 01:57:05;;;;;;;58.08;36.90;;;;;;;8.53;100.00;100162.47;5069165;28;20047;-74
2022/11/05 01:59:34;;;;;;;;;;;;;;;8.59;100.00;100159.00;5069855;28;20037;-74
2022/11/05 02:02:18;;;;;;;48.55;33.97;;;;;;;8.44;100.00;100128.44;5050441;28;19924;-74
2022/11/05 02:04:53;;;;;;;50.95;34.95;;;;;;;8.48;100.00;100124.13;5051017;28;20041;-74
2022/11/05 02:07:20;;;;;;;55.85;35.47;;;;;;;7.89;100.00;100000.13;5067459;28;20045;-74
2022/11/05 02:09:53;;;;;;;47.85;33.42;;;;;;;8.79;100.00;100161.69;5051058;28;20036;-75
2022/11/05 02:12:20;;;;;;;51.05;33.90;;;;;;;7.95;100.00;100015.84;5061822;28;20503;-75
2022/11/05 02:14:46;;;;;;;55.42;34.25;;;;;;;8.08;100.00;100029.81;5068884;28;20067;-75
2022/11/05 02:17:16;;;;;;;52.03;32.97;;;;;;;8.90;100.00;100141.69;5069277;28;20024;-74
2022/11/05 02:20:22;;;;;;;42.63;29.58;;;;;;;9.18;100.00;100160.94;5068032;28;20484;-74
2022/11/05 02:23:12;;;;;;;48.63;32.53;;;;;;;9.20;100.00;100159.19;5063357;28;20043;-74
2022/11/05 02:25:43;;;;;;;46.92;32.80;;;;;;;9.18;100.00;100174.00;5068389;28;20131;-73
2022/11/05 02:28:27;;;;;;;45.67;32.88;;;;;;;9.10;100.00;100170.50;5069038;28;20037;-75
2022/11/05 02:31:00;;;;;;;48.13;35.38;;;;;;;8.96;100.00;100157.38;5069192;28;20043;-75
2022/11/05 02:33:26;;;;;;;;;;;;;;;9.15;100.00;100160.91;5068345;28;20040;-74
2022/11/05 02:36:05;;;;;;;55.90;34.20;;;;;;;8.97;100.00;100132.97;5068509;28;19912;-74
2022/11/05 02:38:45;;;;;;;44.92;33.25;;;;;;;9.14;100.00;100171.38;5068836;28;20462;-75
2022/11/05 02:41:29;;;;;;;46.78;30.23;;;;;;;9.15;100.00;100180.97;5069269;28;20032;-75
2022/11/05 02:44:09;;;;;;;52.55;29.33;;;;;;;8.37;100.00;100030.78;5068343;28;20051;-75
2022/11/05 02:47:03;;;;;;;48.70;30.38;;;;;;;8.53;100.00;100028.25;5073909;28;20052;-75
2022/11/05 02:49:50;;;;;;;48.25;33.08;;;;;;;9.19;100.00;100177.50;5068739;28;20051;-74
2022/11/05 02:52:24;;;;;;;46.42;30.52;;;;;;;9.08;100.00;100157.44;5068358;28;20064;-75
2022/11/05 02:55:36;;;;;;;40.83;30.38;;;;;;;9.39;100.00;100182.75;5067196;28;20097;-74
2022/11/05 02:58:04;;;;;;;46.50;28.27;;;;;;;8.56;100.00;100031.72;5065263;28;20032;-75
2022/11/05 03:01:07;;;;;;;42.38;28.02;;;;;;;9.08;100.00;100160.03;5069214;28;20060;-74
2022/11/05 03:03:45;;;;;;;58.33;30.30;;;;;;;9.04;100.00;100162.66;5067851;28;20033;-75
2022/11/05 03:06:27;;;;;;;41.42;30.20;;;;;;;8.24;100.00;100035.13;5072447;28;20049;-74
2022/11/05 03:09:23;;;;;;;42.53;29.63;;;;;;;9.08;100.00;100165.28;5075056;28;20097;-73
2022/11/05 03:12:06;;;;;;;39.85;28.55;;;;;;;9.13;100.00;100162.66;5077121;28;20477;-73
2022/11/05 03:14:35;;;;;;;44.80;28.17;;;;;;;9.21;100.00;100152.19;5073837;28;20028;-74
2022/11/05 03:17:22;;;;;;;42.75;29.08;;;;;;;9.24;100.00;100152.19;5061444;28;20032;-75
2022/11/05 03:19:57;;;;;;;39.30;26.83;;;;;;;9.34;100.00;100151.34;5065366;28;20045;-75
2022/11/05 03:22:28;;;;;;;39.45;28.50;;;;;;;8.23;100.00;99994.16;5051986;28;20040;-74
2022/11/05 03:24:59;;;;;;;49.33;32.58;;;;;;;8.37;100.00;100025.56;5051746;28;20048;-75
2022/11/05 03:27:32;;;;;;;41.30;27.85;;;;;;;8.97;100.00;100137.34;5051966;28;20036;-75
2022/11/05 03:30:02;;;;;;;40.85;26.35;;;;;;;9.01;100.00;100145.19;5052815;28;20489;-75
2022/11/05 03:32:36;;;;;;;38.60;28.45;;;;;;;8.99;100.00;100143.41;5051616;28;20078;-74
2022/11/05 03:35:07;;;;;;;42.13;29.88;;;;;;;8.25;100.00;100021.16;5046080;28;20124;-73
2022/11/05 03:37:36;;;;;;;38.92;25.90;;;;;;;8.75;100.00;100115.47;5052351;28;20132;-74
2022/11/05 03:40:06;;;;;;;36.65;26.20;;;;;;;8.45;100.00;100056.97;5052025;28;20094;-73
2022/11/05 03:42:42;;;;;;;41.70;26.20;;;;;;;9.18;100.00;100184.50;5051555;28;20119;-76
2022/11/05 03:45:32;;;;;;;39.50;27.67;;;;;;;8.88;100.00;100159.97;5052285;28;20037;-74
2022/11/05 03:48:04;;;;;;;38.40;27.73;;;;;;;8.90;100.00;100159.09;5052339;28;20044;-74
2022/11/05 03:50:59;;;;;;;41.42;28.00;;;;;;;8.86;100.00;100176.56;5051594;28;20044;-74
2022/11/05 03:53:31;;;;;;;43.33;27.25;;;;;;;8.79;100.00;100151.25;5034261;28;20037;-74
2022/11/05 03:56:09;;;;;;;43.88;29.20;;;;;;;8.75;100.00;100131.16;5051868;28;20040;-74
2022/11/05 03:58:36;;;;;;;35.22;28.42;;;;;;;8.83;100.00;100151.25;5051523;28;20041;-74
2022/11/05 04:01:02;;;;;;;36.45;26.23;;;;;;;8.82;100.00;100156.47;5051804;28;20087;-75
2022/11/05 04:03:35;;;;;;;40.80;27.98;;;;;;;8.27;100.00;100069.97;5051775;28;20048;-76
2022/11/05 04:14:31;;;;;;;42.60;27.45;;;;;;;8.74;100.00;100139.91;5051941;28;20150;-75
2022/11/05 04:17:05;;;;;;;43.72;28.48;;;;;;;8.38;100.00;100105.75;5071341;28;20480;-74
2022/11/05 04:25:05;;;;;;;39.75;26.10;;;;;;;8.81;100.00;100168.69;5071379;28;20048;-74
2022/11/05 04:27:30;;;;;;;46.63;29.88;;;;;;;8.61;100.00;100137.22;5081485;28;20130;-74
2022/11/05 04:33:17;;;;;;;67.07;29.90;;;;;;;8.84;100.00;100160.84;5095123;28;20379;-74
2022/11/05 04:42:26;;;;;;;38.50;24.98;;;;;;;8.18;100.00;100068.19;5074717;28;20483;-75
2022/11/05 04:48:14;;;;;;;43.55;26.75;;;;;;;8.19;100.00;100044.69;5074680;28;20047;-75
2022/11/05 04:50:39;;;;;;;41.58;26.52;;;;;;;8.21;100.00;100052.50;5074985;28;20020;-75
2022/11/05 04:53:05;;;;;;;40.78;29.45;;;;;;;8.66;100.00;100142.47;5074796;28;20082;-74
2022/11/05 04:58:52;;;;;;;50.85;31.33;;;;;;;8.14;100.00;100035.94;5075171;28;20044;-73
2022/11/05 05:04:40;;;;;;;50.00;31.00;;;;;;;8.48;100.00;100108.44;5072724;28;20127;-75
2022/11/05 05:07:42;;;;;;;41.95;29.58;;;;;;;8.95;100.00;100180.94;5054387;28;20132;-74
2022/11/05 05:13:29;;;;;;;38.72;30.42;;;;;;;8.93;100.00;100187.91;5054684;28;20040;-74
2022/11/05 05:16:06;;;;;;;41.05;29.95;;;;;;;8.03;100.00;100038.53;5054351;28;20459;-75
2022/11/05 05:18:32;;;;;;;39.13;27.38;;;;;;;8.89;100.00;100181.78;5033748;28;20041;-75
2022/11/05 05:24:23;;;;;;;44.40;30.73;;;;;;;8.14;100.00;100058.59;5034264;28;20036;-74
2022/11/05 05:26:49;;;;;;;39.92;29.27;;;;;;;8.94;100.00;100194.88;5032725;28;20047;-73
2022/11/05 05:32:37;;;;;;;37.28;30.42;;;;;;;8.79;100.00;100183.50;5033984;28;20047;-74
2022/11/05 05:38:42;;;;;;;55.78;30.23;;;;;;;8.30;100.00;100089.13;5073806;28;20101;-73
2022/11/05 05:41:07;;;;;;;45.40;30.25;;;;;;;9.03;100.00;100219.31;5073789;28;20024;-73
2022/11/05 05:46:54;;;;;;;51.35;31.98;;;;;;;9.15;100.00;100233.31;5074031;28;20078;-74
2022/11/05 05:52:42;;;;;;;49.30;30.95;;;;;;;9.13;100.00;100233.34;5073000;28;20521;-74
2022/11/05 05:59:04;;;;;;;58.05;32.42;;;;;;;8.20;100.00;100066.47;5073979;28;20039;-73
2022/11/05 06:01:29;;;;;;;51.47;32.60;;;;;;;8.80;100.00;100147.75;5066244;28;20043;-74
2022/11/05 06:04:01;;;;;;;55.85;33.38;;;;;;;9.10;100.00;100188.81;5067872;28;20397;-75
2022/11/05 06:06:26;;;;;;;54.10;35.25;;;;;;;9.38;100.00;100249.09;5068380;28;20040;-73
2022/11/05 06:08:54;;;;;;;74.82;36.53;;;;;;;9.48;100.00;100259.59;5068976;28;20040;-73
2022/11/05 06:11:19;;;;;;;50.10;30.33;;;;;;;8.59;100.00;100106.69;5057871;28;20029;-73
2022/11/05 06:13:45;;;;;;;56.80;34.35;;;;;;;9.09;100.00;100189.69;5049941;28;20060;-75
2022/11/05 06:16:10;;;;;;;62.55;33.92;;;;;;;9.43;100.00;100245.59;5091985;28;20040;-74
2022/11/05 06:18:36;;;;;;;51.83;33.30;;;;;;;9.51;100.00;100251.75;5069670;28;20028;-73
2022/11/05 06:21:10;;;;;;;54.83;32.97;;;;;;;9.67;100.00;100263.13;5065968;28;20472;-75
2022/11/05 06:23:57;;;;;;;;;;;;;;;9.72;100.00;100271.88;5068790;28;20062;-73
2022/11/05 06:26:23;;;;;;;61.15;35.58;;;;;;;9.00;100.00;100148.66;5068265;28;19916;-74
2022/11/05 06:28:48;;;;;;;52.63;32.25;;;;;;;9.86;100.00;100281.50;5066942;28;20508;-74
2022/11/05 06:31:14;;;;;;;54.03;36.58;;;;;;;9.88;100.00;100288.47;5050158;28;20415;-74
2022/11/05 06:33:46;;;;;;;59.95;35.13;;;;;;;9.33;100.00;100174.91;5069715;28;20116;-75
2022/11/05 06:36:17;;;;;;;50.50;35.45;;;;;;;9.81;100.00;100263.16;5068029;28;20388;-74
2022/11/05 06:38:42;;;;;;;63.63;35.88;;;;;;;9.95;100.00;100273.63;5067379;28;20074;-74
2022/11/05 06:41:08;;;;;;;58.97;35.17;;;;;;;10.20;100.00;100302.47;5071631;28;20029;-74
2022/11/05 06:43:33;;;;;;;59.50;35.17;;;;;;;9.41;100.00;100146.97;5067518;28;20041;-75
2022/11/05 06:46:02;;;;;;;65.20;35.60;;;;;;;10.10;100.00;100278.88;5071556;28;20468;-75
2022/11/05 06:48:28;;;;;;;69.97;39.70;;;;;;;10.08;100.00;100278.00;5078913;28;20045;-75
2022/11/05 06:50:54;;;;;;;64.90;39.45;;;;;;;9.73;100.00;100179.28;5063407;28;20074;-76
2022/11/05 06:53:20;;;;;;;75.35;38.45;;;;;;;9.52;100.00;100124.28;5072416;28;20474;-76
2022/11/05 06:55:46;;;;;;;87.28;40.53;;;;;;;9.35;100.00;100111.19;5066598;28;20389;-73
2022/11/05 06:58:13;;;;;;;80.18;40.80;;;;;;;9.57;100.00;100140.00;5065820;28;20337;-75
2022/11/05 07:00:38;;;;;;;79.90;43.58;;;;;;;9.95;100.00;100202.88;5065536;28;20433;-76
2022/11/05 07:03:05;;;;;;;78.22;42.78;;;;;;;10.39;100.00;100243.03;5065382;28;20101;-75
2022/11/05 07:05:32;;;;;;;67.20;40.40;;;;;;;10.48;100.00;100261.38;5061680;28;20103;-76
2022/11/05 07:07:58;;;;;;;74.05;41.00;;;;;;;9.85;100.00;100125.97;5078056;28;20028;-75
2022/11/05 07:10:24;;;;;;;89.47;46.55;;;;;;;10.03;100.00;100148.66;5070200;28;20044;-75
2022/11/05 07:12:49;;;;;;;111.95;49.33;;;;;;;9.85;100.00;100140.84;5058614;28;20094;-76
2022/11/05 07:15:15;;;;;;;84.35;44.20;;;;;;;10.63;100.00;100249.94;5066218;28;20045;-73
2022/11/05 07:17:40;;;;;;;75.45;44.58;;;;;;;10.81;100.00;100270.03;5049120;28;20119;-75
2022/11/05 07:20:07;;;;;;;74.03;41.97;;;;;;;10.83;100.00;100261.28;5062375;28;20020;-74
2022/11/05 07:22:33;;;;;;;75.18;44.53;;;;;;;10.89;100.00;100265.63;5065622;28;20067;-74
2022/11/05 07:24:59;;;;;;;71.75;42.42;;;;;;;10.39;100.00;100153.84;5065834;28;20041;-73
2022/11/05 07:27:24;;;;;;;78.68;44.75;;;;;;;10.36;100.00;100146.88;5055120;28;20060;-75
2022/11/05 07:29:50;;;;;;;79.40;47.45;;;;;;;10.98;100.00;100273.47;5067293;28;20036;-76
2022/11/05 07:32:15;;;;;;;75.55;45.15;;;;;;;10.73;100.00;100220.19;5066855;28;20032;-83
2022/11/05 07:34:41;;;;;;;90.15;47.42;;;;;;;10.96;100.00;100256.88;5064504;28;20047;-74
2022/11/05 07:37:06;;;;;;;76.32;44.67;;;;;;;10.94;100.00;100248.97;5065286;28;20392;-76
2022/11/05 07:39:32;;;;;;;87.53;47.00;;;;;;;10.93;100.00;100223.63;5041818;28;20036;-76
2022/11/05 07:41:57;;;;;;;88.57;50.88;;;;;;;11.16;100.00;100246.25;5045500;28;20435;-76
2022/11/05 07:44:23;;;;;;;71.90;43.95;;;;;;;10.72;100.00;100168.56;5046251;28;20072;-75
2022/11/05 07:46:49;;;;;;;76.25;47.20;;;;;;;11.27;100.00;100273.34;5063683;28;20043;-75
2022/11/05 07:49:15;;;;;;;72.60;42.00;;;;;;;10.47;100.00;100131.97;5068153;28;20063;-75
2022/11/05 07:55:03;;;;;;;75.07;45.05;;;;;;;11.52;100.00;100250.44;5071743;28;20067;-77
2022/11/05 07:57:28;;;;;;;66.57;43.13;;;;;;;11.11;100.00;100137.75;5071926;28;20076;-77
2022/11/05 08:00:00;;;;;;;75.47;41.10;;;;;;;11.91;100.00;100260.69;5070874;28;20029;-74
2022/11/05 08:02:25;;;;;;;69.75;41.03;;;;;;;11.56;100.00;100143.53;5053236;28;20333;-75
2022/11/05 08:04:50;;;;;;;80.85;46.30;;;;;;;11.98;100.00;100271.13;5071380;28;20029;-77
2022/11/05 08:07:16;;;;;;;80.93;43.80;;;;;;;11.37;100.00;100143.66;5071957;28;20480;-76
2022/11/05 08:09:41;;;;;;;79.22;45.33;;;;;;;11.92;100.00;100249.31;5071649;28;20422;-76
2022/11/05 08:12:07;;;;;;;76.90;44.45;;;;;;;11.99;100.00;100269.41;5070604;28;20051;-77
2022/11/05 08:14:44;;;;;;;75.32;43.60;;;;;;;11.82;100.00;100256.34;5071431;28;20099;-76
2022/11/05 08:17:09;;;;;;;74.38;39.92;;;;;;;11.69;100.00;100139.91;5071290;28;20037;-76
2022/11/05 08:19:35;;;;;;;78.93;47.72;;;;;;;12.14;100.00;100244.72;5062293;28;20503;-76
2022/11/05 08:25:25;;;;;;;79.75;44.83;;;;;;;11.72;100.00;100154.78;5074787;28;20052;-76
2022/11/05 08:31:14;;;;;;;73.78;45.50;;;;;;;12.00;100.00;100173.84;5074551;28;20043;-77
2022/11/05 08:37:01;;;;;;;75.97;44.50;;;;;;;12.30;100.00;100193.69;5074509;28;20480;-76
2022/11/05 08:42:51;;;;;;;71.25;43.85;;;;;;;12.86;100.00;100244.81;5074508;28;20183;-75
2022/11/05 08:52:00;;;;;;;68.95;42.47;;;;;;;12.84;100.00;100190.44;5074128;28;20043;-76
2022/11/05 08:57:57;;;;;;;76.38;41.75;;;;;;;13.51;100.00;100239.59;5070405;28;20082;-76
2022/11/05 09:00:24;;;;;;;60.55;41.10;;;;;;;13.59;100.00;100220.16;5070374;28;20037;-76
2022/11/05 09:02:49;;;;;;;80.30;45.78;;;;;;;13.12;100.00;100163.72;5070000;28;20033;-75
2022/11/05 09:05:15;;;;;;;55.97;39.70;;;;;;;13.59;100.00;100212.25;5070833;28;20082;-75
2022/11/05 09:07:40;;;;;;;69.75;41.17;;;;;;;13.20;100.00;100123.19;5069550;28;20057;-75
2022/11/05 09:10:06;;;;;;;80.95;43.47;;;;;;;13.31;100.00;100138.88;5056347;28;20041;-76
2022/11/05 09:12:32;;;;;;;71.97;44.08;;;;;;;13.79;100.00;100248.84;5053379;28;20041;-76
2022/11/05 09:14:57;;;;;;;81.43;44.25;;;;;;;13.88;100.00;100252.22;5072072;28;20056;-76
2022/11/05 09:17:23;;;;;;;54.13;39.15;;;;;;;13.77;100.00;100214.59;5067948;28;20540;-75
2022/11/05 09:19:48;;;;;;;69.03;41.78;;;;;;;13.28;100.00;100123.13;5068713;28;20158;-76
2022/11/05 09:22:14;;;;;;;68.35;39.78;;;;;;;14.00;100.00;100232.69;5069944;28;20044;-76
2022/11/05 09:24:41;;;;;;;65.38;40.92;;;;;;;14.00;100.00;100237.97;5070033;28;20303;-76
2022/11/05 09:27:12;;;;;;;56.90;33.83;;;;;;;15.35;100.00;100223.88;5069668;28;20036;-75
2022/11/05 09:29:38;;;;;;;60.78;39.88;;;;;;;14.43;100.00;100229.25;5069597;28;20585;-76
2022/11/05 09:32:04;;;;;;;60.50;38.10;;;;;;;13.63;100.00;100155.94;5070730;28;20028;-76
2022/11/05 09:34:29;;;;;;;63.92;40.53;;;;;;;14.02;100.00;100217.66;5068730;28;20468;-77
2022/11/05 09:36:56;;;;;;;72.53;40.25;;;;;;;14.25;100.00;100238.38;5085925;28;20043;-77
2022/11/05 09:39:21;;;;;;;66.03;41.42;;;;;;;13.80;100.00;100131.91;5088669;28;20501;-76
2022/11/05 09:41:48;;;;;;;72.75;37.45;;;;;;;13.97;100.00;100136.88;5071411;28;20029;-78
2022/11/05 09:44:40;;;;;;;80.13;38.55;;;;;;;14.72;100.00;100256.91;5071343;28;20024;-78
2022/11/05 09:47:13;;;;;;;90.25;49.53;;;;;;;14.70;99.84;100256.97;4985074;28;20435;-77
2022/11/05 09:49:43;;;;;;;76.68;45.70;;;;;;;14.75;99.85;100255.09;5049709;28;20064;-77
2022/11/05 09:52:17;;;;;;;88.47;48.17;;;;;;;13.87;100.00;100134.41;5049210;28;20122;-75
2022/11/05 09:54:43;;;;;;;81.13;41.30;;;;;;;13.93;100.00;100144.00;5032088;28;20059;-75
2022/11/05 09:57:17;;;;;;;82.47;55.17;;;;;;;14.61;100.00;100246.56;5049179;28;20037;-76
2022/11/05 09:59:52;;;;;;;113.35;89.22;;;;;;;13.93;100.00;100123.75;5048583;28;20028;-75
2022/11/05 10:02:40;;;;;;;81.95;54.03;;;;;;;14.80;100.00;100243.53;5049505;28;20405;-75
2022/11/05 10:05:10;;;;;;;75.90;42.83;;;;;;;14.51;100.00;100214.13;5049798;28;20021;-75
2022/11/05 10:07:44;;;;;;;58.75;36.47;;;;;;;14.97;98.78;100215.88;5067498;28;20055;-75
2022/11/05 10:10:33;;;;;;;73.82;39.67;;;;;;;14.63;98.20;100188.41;5057573;28;20228;-76
2022/11/05 10:13:04;;;;;;;63.50;39.75;;;;;;;14.98;98.73;100236.13;5062436;28;20112;-75
2022/11/05 10:15:49;;;;;;;57.47;36.08;;;;;;;15.46;96.63;100236.84;5048853;28;20489;-74
2022/11/05 10:18:26;;;;;;;62.53;36.47;;;;;;;15.31;97.77;100235.41;5049334;28;20114;-75
2022/11/05 10:20:52;;;;;;;64.00;34.30;;;;;;;15.32;96.14;100206.31;5047002;28;20048;-75
2022/11/05 10:23:19;;;;;;;54.65;35.58;;;;;;;15.34;96.20;100225.66;5048608;28;20132;-80
2022/11/05 10:25:53;;;;;;;72.68;39.28;;;;;;;15.32;96.14;100201.03;5048243;28;20041;-77
2022/11/05 10:28:22;;;;;;;52.47;35.75;;;;;;;14.95;94.65;100119.91;5048109;28;20473;-76
2022/11/05 10:31:07;;;;;;;57.05;33.50;;;;;;;15.87;93.65;100195.34;5038283;28;20508;-75
2022/11/05 10:33:38;;;;;;;49.33;34.92;;;;;;;15.71;94.42;100214.25;5047457;28;20477;-77
2022/11/05 10:36:08;;;;;;;54.03;33.38;;;;;;;15.22;94.48;100114.03;5047716;28;20476;-76
2022/11/05 10:38:34;;;;;;;56.90;38.53;;;;;;;15.12;94.80;100130.09;5047641;28;20040;-75
2022/11/05 10:41:31;;;;;;;51.28;32.97;;;;;;;15.94;94.19;100232.19;5049903;28;20059;-74
2022/11/05 10:44:22;;;;;;;58.47;39.28;;;;;;;15.94;94.29;100233.97;5034028;28;20123;-74
2022/11/05 10:50:19;;;;;;;57.22;37.30;;;;;;;16.17;92.74;100231.59;5071493;28;20136;-76
2022/11/05 10:52:51;;;;;;;56.67;34.88;;;;;;;15.85;91.81;100115.13;5067185;28;20142;-77
2022/11/05 11:02:39;;;;;;;53.78;37.88;;;;;;;16.74;90.46;100210.63;5071598;28;20043;-76
2022/11/05 11:08:27;;;;;;;43.90;33.05;;;;;;;16.77;90.78;100218.53;5072652;28;20114;-75
2022/11/05 11:11:30;;;;;;;50.20;32.70;;;;;;;17.14;89.20;100220.09;5071995;28;20112;-76
2022/11/05 11:17:27;;;;;;;49.25;32.90;;;;;;;16.73;88.67;100110.88;5074689;28;20104;-74
2022/11/05 11:20:26;;;;;;;50.22;34.75;;;;;;;17.37;88.05;100207.03;5093149;28;20127;-75
2022/11/05 11:29:38;;;;;;;52.53;33.80;;;;;;;17.07;87.55;100095.72;5096875;28;20070;-82
2022/11/05 11:32:26;;;;;;;44.92;33.45;;;;;;;17.63;88.05;100200.91;5096646;28;20027;-76
2022/11/05 11:41:48;;;;;;;37.03;30.83;;;;;;;17.88;86.16;100165.59;5093036;28;20043;-75
2022/11/05 11:47:43;;;;;;;47.08;28.38;;;;;;;17.92;86.19;100172.53;5096226;28;20108;-76
2022/11/05 11:50:37;;;;;;;49.03;26.95;;;;;;;18.20;85.32;100187.53;5096129;28;20112;-76
2022/11/05 11:56:11;;;;;;;40.95;28.88;;;;;;;18.33;82.33;100176.41;5096304;28;20010;-74
2022/11/05 11:58:55;;;;;;;49.55;32.65;;;;;;;18.38;82.42;100175.34;5094466;28;20048;-74
2022/11/05 12:01:42;;;;;;;63.65;30.38;;;;;;;18.51;81.50;100176.66;5095140;28;20139;-74
2022/11/05 12:04:23;;;;;;;46.15;29.60;;;;;;;18.61;80.76;100188.66;5093751;28;20111;-74
2022/11/05 12:07:29;;;;;;;40.75;28.33;;;;;;;18.61;80.67;100182.50;5093818;28;20139;-74
2022/11/05 12:13:22;;;;;;;48.22;26.67;;;;;;;18.91;79.04;100196.47;5053702;28;20048;-76
2022/11/05 12:16:12;;;;;;;43.03;27.70;;;;;;;18.83;78.94;100177.28;5053331;28;20041;-73
2022/11/05 12:22:18;;;;;;;43.92;24.23;;;;;;;18.89;79.00;100172.59;5075086;28;20063;-74
2022/11/05 12:25:01;;;;;;;41.30;23.52;;;;;;;19.12;78.68;100187.66;5074160;28;20043;-74
2022/11/05 12:31:01;;;;;;;41.50;25.15;;;;;;;19.18;78.17;100175.94;5074565;28;20035;-74
2022/11/05 12:37:03;;;;;;;32.95;24.77;;;;;;;18.41;78.71;100079.63;5074113;28;20076;-75
2022/11/05 12:43:15;;;;;;;33.67;25.88;;;;;;;18.29;78.97;100076.50;5074334;28;20059;-75
2022/11/05 12:49:33;;;;;;;36.45;24.75;;;;;;;18.83;79.73;100191.44;5074748;28;20436;-75
2022/11/05 12:51:58;;;;;;;34.20;24.88;;;;;;;18.90;79.78;100178.78;5069753;28;20475;-74
2022/11/05 12:57:50;;;;;;;39.85;25.05;;;;;;;18.71;80.89;100184.75;5073801;28;20391;-73
2022/11/05 13:04:12;;;;;;;33.42;24.75;;;;;;;18.62;81.71;100189.56;5074345;28;20144;-73
2022/11/05 13:10:27;;;;;;;39.25;25.33;;;;;;;17.98;82.13;100094.44;5073936;28;20375;-74
2022/11/05 13:16:49;;;;;;;36.28;23.25;;;;;;;18.55;81.72;100196.88;5074422;28;20063;-74
2022/11/05 13:22:41;;;;;;;38.28;21.02;;;;;;;18.10;81.16;100097.56;4972410;28;20046;-73
2022/11/05 13:41:51;;;;;;;35.60;20.13;;;;;;;18.09;81.25;100102.91;4972856;28;20089;-82
2022/11/05 13:48:02;;;;;;;26.88;19.90;;;;;;;17.84;80.70;100085.22;4990273;28;20047;-82
2022/11/05 13:50:51;;;;;;;32.40;20.67;;;;;;;18.28;81.26;100199.59;5074033;28;20094;-79
2022/11/05 13:57:29;;;;;;;42.33;22.08;;;;;;;18.37;81.23;100214.34;5068177;28;20075;-81
2022/11/05 13:59:57;;;;;;;31.17;19.58;;;;;;;18.56;81.33;100215.41;5049363;28;20090;-81
2022/11/05 14:05:54;;;;;;;44.60;19.77;;;;;;;17.53;82.17;100111.88;5073376;28;20094;-85
2022/11/05 14:08:27;;;;;;;33.45;20.35;;;;;;;18.28;82.73;100220.84;5073570;28;20028;-82
2022/11/05 14:11:06;;;;;;;34.25;20.80;;;;;;;17.92;82.71;100223.84;5072470;28;20044;-82
2022/11/05 14:13:36;;;;;;;29.83;20.10;;;;;;;17.44;82.71;100123.69;5072489;28;20469;-81
2022/11/05 14:16:21;;;;;;;38.50;20.77;;;;;;;18.01;84.00;100224.47;5072701;28;20048;-81
2022/11/05 14:22:35;;;;;;;37.00;21.30;;;;;;;17.80;83.91;100237.50;5052479;28;20051;-75
2022/11/05 14:25:32;;;;;;;33.88;22.15;;;;;;;17.59;85.19;100240.84;5050666;28;20048;-78
2022/11/05 14:31:23;;;;;;;37.63;20.40;;;;;;;17.15;84.74;100163.53;5018144;28;20139;-79
2022/11/05 14:34:32;;;;;;;34.22;24.35;;;;;;;17.58;85.51;100255.00;5052325;28;20080;-78
2022/11/05 14:44:31;;;;;;;32.42;23.65;;;;;;;17.47;86.79;100242.97;5051625;28;20044;-78
2022/11/05 14:50:32;;;;;;;36.17;22.60;;;;;;;17.27;86.96;100246.22;5053103;28;20060;-78
2022/11/05 14:56:19;;;;;;;32.00;20.48;;;;;;;17.12;88.37;100246.69;5053011;28;20530;-83
2022/11/05 15:02:14;;;;;;;37.17;22.20;;;;;;;16.97;89.07;100250.63;5059386;28;20444;-75
2022/11/05 15:04:44;;;;;;;36.35;24.67;;;;;;;16.75;89.12;100244.19;5058574;28;20064;-77
2022/11/05 15:07:09;;;;;;;41.22;25.33;;;;;;;16.87;89.22;100257.97;5058737;28;20041;-75
2022/11/05 15:13:04;;;;;;;40.63;22.38;;;;;;;16.13;89.18;100157.59;5060952;28;20113;-76
2022/11/05 15:15:50;;;;;;;32.50;22.65;;;;;;;16.67;89.73;100262.97;5058743;28;20040;-76
2022/11/05 15:18:51;;;;;;;42.92;23.83;;;;;;;16.00;89.89;100154.44;5075563;28;20070;-76
2022/11/05 15:21:19;;;;;;;36.03;23.42;;;;;;;16.46;90.16;100256.47;5068028;28;20051;-76
2022/11/05 15:27:39;;;;;;;42.03;26.17;;;;;;;16.38;90.75;100274.31;5078244;28;20043;-76
2022/11/05 15:33:26;;;;;;;58.00;26.85;;;;;;;16.00;90.70;100223.25;5078694;28;20405;-76
2022/11/05 15:35:53;;;;;;;34.92;25.83;;;;;;;15.72;91.26;100186.88;5078150;28;20028;-76
2022/11/05 15:38:29;;;;;;;39.97;26.08;;;;;;;15.71;90.97;100198.38;5079180;28;20020;-74
2022/11/05 15:41:12;;;;;;;44.20;26.30;;;;;;;16.20;91.35;100281.84;5078183;28;20051;-75
2022/11/05 15:44:24;;;;;;;44.28;25.70;;;;;;;16.19;91.35;100292.47;5077704;28;20107;-74
2022/11/05 15:47:15;;;;;;;42.03;23.73;;;;;;;16.09;91.81;100290.97;5077652;28;20028;-75
2022/11/05 15:53:15;;;;;;;34.47;27.05;;;;;;;15.74;92.03;100247.69;5079065;28;20076;-75
2022/11/05 15:55:52;;;;;;;47.95;28.15;;;;;;;16.08;91.81;100303.31;5076843;28;20037;-75